Aviation Digital Data Service (ADDS)

Output produced by METARs form (2330 UTC 23 May 2022)
found at http://www.aviationweather.gov/metar/data/
 
ZMUB 232300Z 33005MPS 290V350 CAVOK 09/M01 Q1024 NOSIG RMK QFE659.7 52
TAF COR ZMUB 232246Z 2400/2506 34005MPS 9999 FEW030CB SCT033 TX21/2407Z
TN03/2422Z 
     BECMG 2401/2403 35007MPS 
     BECMG 2410/2412 VRB02MPS